Time;durP1;ratioP1;P1;durP2;ratioP2;P2;SDS_P1;SDS_P2;PMS_P1;PMS_P2;Temp;Humidity;BMP_temperature;BMP_pressure;BME280_temperature;BME280_humidity;BME280_pressure;Samples;Min_cycle;Max_cycle;Signal;HPM_P1;HPM_P2
2022/03/09 00:01:17;;;;;;;58.17;29.02;;;;;;;;;;5073110;28;20075;-48
2022/03/09 00:03:43;;;;;;;55.55;29.83;;;;;;;;;;5073338;28;20104;-55
2022/03/09 00:06:09;;;;;;;62.88;30.75;;;;;;;;;;5055343;28;20021;-52
2022/03/09 00:08:36;;;;;;;62.75;32.13;;;;;;;;;;5073213;28;20433;-54
2022/03/09 00:11:02;;;;;;;67.65;32.08;;;;;;;;;;5073153;28;20020;-48
2022/03/09 00:13:28;;;;;;;57.45;29.77;;;;;;;;;;5073054;28;20032;-47
2022/03/09 00:15:54;;;;;;;56.33;29.58;;;;;;;;;;5073326;28;20067;-55
2022/03/09 00:18:20;;;;;;;56.92;27.98;;;;;;;;;;5073520;28;20093;-55
2022/03/09 00:20:46;;;;;;;54.00;28.33;;;;;;;;;;5073167;28;20036;-49
2022/03/09 00:23:12;;;;;;;44.85;26.30;;;;;;;;;;5073168;28;20029;-53
2022/03/09 00:25:44;;;;;;;51.78;24.67;;;;;;;;;;5072879;28;20020;-50
2022/03/09 00:28:10;;;;;;;;;;;;;;;;;;5073450;28;20031;-55
2022/03/09 00:30:36;;;;;;;49.60;24.90;;;;;;;;;;5073067;28;19908;-53
2022/03/09 00:33:02;;;;;;;43.83;23.55;;;;;;;;;;5073147;28;20028;-50
2022/03/09 00:35:28;;;;;;;44.55;22.67;;;;;;;;;;5073097;28;20024;-49
2022/03/09 00:37:54;;;;;;;46.78;25.05;;;;;;;;;;5073102;28;20036;-50
2022/03/09 00:40:21;;;;;;;42.10;22.77;;;;;;;;;;5073060;28;20016;-47
2022/03/09 00:42:47;;;;;;;44.13;23.45;;;;;;;;;;5073313;28;20021;-47
2022/03/09 00:45:13;;;;;;;47.35;23.98;;;;;;;;;;5073290;28;20505;-46
2022/03/09 00:47:39;;;;;;;49.10;24.05;;;;;;;;;;5073142;28;20024;-47
2022/03/09 00:50:06;;;;;;;45.67;23.08;;;;;;;;;;5072950;28;20020;-47
2022/03/09 00:52:32;;;;;;;42.28;23.40;;;;;;;;;;5073104;28;20025;-51
2022/03/09 00:54:58;;;;;;;48.08;24.60;;;;;;;;;;5072949;28;20027;-47
2022/03/09 00:57:24;;;;;;;44.00;24.33;;;;;;;;;;5072836;28;20112;-47
2022/03/09 00:59:50;;;;;;;45.13;22.15;;;;;;;;;;5072709;28;20511;-46
2022/03/09 01:02:17;;;;;;;43.25;22.10;;;;;;;;;;5072809;28;20075;-46
2022/03/09 01:04:43;;;;;;;49.53;24.50;;;;;;;;;;5072854;28;20035;-48
2022/03/09 01:07:09;;;;;;;43.30;23.88;;;;;;;;;;5073709;28;20020;-46
2022/03/09 01:09:35;;;;;;;42.55;22.98;;;;;;;;;;5076519;28;20032;-54
2022/03/09 01:12:01;;;;;;;40.78;21.73;;;;;;;;;;5076569;28;20032;-46
2022/03/09 01:14:27;;;;;;;41.75;22.08;;;;;;;;;;5076384;28;20020;-46
2022/03/09 01:16:54;;;;;;;44.80;22.70;;;;;;;;;;5076670;28;20457;-46
2022/03/09 01:19:20;;;;;;;44.67;24.10;;;;;;;;;;5076237;28;20095;-50
2022/03/09 01:21:46;;;;;;;46.17;26.38;;;;;;;;;;5076151;28;20024;-46
2022/03/09 01:24:12;;;;;;;44.38;24.95;;;;;;;;;;5076214;28;20527;-46
2022/03/09 01:26:38;;;;;;;47.20;24.15;;;;;;;;;;5076237;28;20093;-47
2022/03/09 01:29:06;;;;;;;41.90;21.40;;;;;;;;;;5076485;28;20024;-47
2022/03/09 01:31:32;;;;;;;44.53;22.02;;;;;;;;;;5075985;28;20032;-46
2022/03/09 01:33:59;;;;;;;43.22;22.67;;;;;;;;;;5076287;28;20036;-46
2022/03/09 01:36:25;;;;;;;43.08;21.48;;;;;;;;;;5076186;28;20059;-47
2022/03/09 01:38:51;;;;;;;38.45;21.08;;;;;;;;;;5075880;28;20039;-48
2022/03/09 01:41:17;;;;;;;37.88;20.45;;;;;;;;;;5075883;28;20046;-48
2022/03/09 01:43:43;;;;;;;40.15;20.42;;;;;;;;;;5076083;28;20081;-51
2022/03/09 01:46:09;;;;;;;39.03;21.17;;;;;;;;;;5076150;28;20103;-49
2022/03/09 01:48:35;;;;;;;37.67;21.40;;;;;;;;;;5076097;28;20028;-53
2022/03/09 01:51:01;;;;;;;39.47;21.58;;;;;;;;;;5075789;28;20104;-50
2022/03/09 01:53:27;;;;;;;39.78;20.55;;;;;;;;;;5075763;28;20075;-49
2022/03/09 01:55:53;;;;;;;37.13;21.05;;;;;;;;;;5075797;28;20024;-48
2022/03/09 01:58:19;;;;;;;41.10;21.35;;;;;;;;;;5075800;28;20032;-50
2022/03/09 02:00:46;;;;;;;36.95;21.00;;;;;;;;;;5075519;28;20396;-47
2022/03/09 02:03:12;;;;;;;42.00;22.08;;;;;;;;;;5075654;28;20028;-47
2022/03/09 02:05:38;;;;;;;41.75;20.65;;;;;;;;;;5075530;28;20157;-50
2022/03/09 02:10:53;;;;;;;40.90;20.65;;;;;;;;;;5075387;28;20040;-47
2022/03/09 02:13:21;;;;;;;41.80;24.77;;;;;;;;;;5075508;28;20024;-46
2022/03/09 02:15:47;;;;;;;54.63;36.80;;;;;;;;;;5075110;28;20029;-46
2022/03/09 02:18:13;;;;;;;82.15;54.80;;;;;;;;;;5074851;28;20028;-46
2022/03/09 02:20:45;;;;;;;84.40;58.42;;;;;;;;;;5075057;28;20024;-46
2022/03/09 02:23:11;;;;;;;75.57;48.65;;;;;;;;;;5075134;28;20071;-46
2022/03/09 02:25:37;;;;;;;54.58;34.65;;;;;;;;;;5074935;28;20059;-45
2022/03/09 02:28:03;;;;;;;49.30;28.02;;;;;;;;;;5074982;28;20028;-45
2022/03/09 02:30:29;;;;;;;43.97;24.17;;;;;;;;;;5074817;28;20055;-46
2022/03/09 02:32:55;;;;;;;42.22;22.30;;;;;;;;;;5074862;28;20024;-46
2022/03/09 02:35:22;;;;;;;41.70;23.13;;;;;;;;;;5074781;28;20031;-45
2022/03/09 02:37:48;;;;;;;44.65;22.23;;;;;;;;;;5074747;28;20086;-46
2022/03/09 02:40:15;;;;;;;41.53;22.02;;;;;;;;;;5074505;28;20107;-46
2022/03/09 02:42:41;;;;;;;39.05;21.40;;;;;;;;;;5074794;28;20428;-47
2022/03/09 02:45:08;;;;;;;39.70;21.42;;;;;;;;;;5074670;28;20024;-46
2022/03/09 02:47:34;;;;;;;39.17;21.02;;;;;;;;;;5074629;28;20021;-45
2022/03/09 02:50:00;;;;;;;43.97;21.92;;;;;;;;;;5074519;28;20020;-46
2022/03/09 02:52:26;;;;;;;39.25;20.65;;;;;;;;;;5074410;28;20382;-46
2022/03/09 02:54:52;;;;;;;39.15;21.35;;;;;;;;;;5074308;28;20105;-46
2022/03/09 02:57:18;;;;;;;44.10;22.02;;;;;;;;;;5056443;28;20391;-45
2022/03/09 02:59:47;;;;;;;67.00;37.42;;;;;;;;;;5074096;28;20043;-46
2022/03/09 03:02:13;;;;;;;159.82;91.00;;;;;;;;;;5074197;28;20420;-45
2022/03/09 03:04:39;;;;;;;171.77;96.85;;;;;;;;;;5074446;28;20028;-47
2022/03/09 03:07:05;;;;;;;130.07;75.22;;;;;;;;;;5074314;28;20453;-47
2022/03/09 03:09:31;;;;;;;80.75;44.47;;;;;;;;;;5073909;28;20025;-47
2022/03/09 03:11:57;;;;;;;59.33;32.78;;;;;;;;;;5074349;28;20388;-47
2022/03/09 03:14:26;;;;;;;48.67;24.23;;;;;;;;;;5074102;28;20028;-47
2022/03/09 03:16:52;;;;;;;40.83;21.08;;;;;;;;;;5073917;28;20399;-47
2022/03/09 03:19:18;;;;;;;35.75;18.88;;;;;;;;;;5073903;28;20113;-48
2022/03/09 03:21:44;;;;;;;36.88;19.02;;;;;;;;;;5073802;28;20027;-47
2022/03/09 03:24:10;;;;;;;33.17;18.00;;;;;;;;;;5073928;28;20052;-47
2022/03/09 03:26:36;;;;;;;34.92;17.83;;;;;;;;;;5073664;28;20043;-48
2022/03/09 03:29:03;;;;;;;32.88;16.83;;;;;;;;;;5073665;28;20028;-48
2022/03/09 03:31:29;;;;;;;30.30;16.95;;;;;;;;;;5073078;28;20366;-48
2022/03/09 03:33:56;;;;;;;30.00;16.30;;;;;;;;;;5073975;28;20487;-48
2022/03/09 03:36:22;;;;;;;33.25;16.05;;;;;;;;;;5073615;28;20025;-47
2022/03/09 03:38:48;;;;;;;32.00;17.10;;;;;;;;;;5073530;28;20499;-47
2022/03/09 03:41:14;;;;;;;40.45;20.70;;;;;;;;;;5073377;28;20029;-46
2022/03/09 03:43:40;;;;;;;55.60;23.05;;;;;;;;;;5073538;28;20032;-49
2022/03/09 03:46:06;;;;;;;63.60;26.45;;;;;;;;;;5073539;28;20025;-46
2022/03/09 03:48:32;;;;;;;65.72;27.17;;;;;;;;;;5073604;28;20029;-47
2022/03/09 03:50:58;;;;;;;58.00;24.58;;;;;;;;;;5073425;28;20484;-47
2022/03/09 03:53:27;;;;;;;54.45;24.42;;;;;;;;;;5073452;28;20028;-46
2022/03/09 03:55:53;;;;;;;38.00;19.15;;;;;;;;;;5073291;28;20058;-47
2022/03/09 03:58:19;;;;;;;37.63;18.52;;;;;;;;;;5073497;28;20033;-46
2022/03/09 04:00:45;;;;;;;31.08;16.10;;;;;;;;;;5073001;28;20064;-47
2022/03/09 04:03:11;;;;;;;31.85;17.00;;;;;;;;;;5073230;28;20035;-46
2022/03/09 04:05:37;;;;;;;33.17;17.23;;;;;;;;;;5073329;28;20028;-48
2022/03/09 04:08:04;;;;;;;31.15;14.98;;;;;;;;;;5073268;28;20024;-47
2022/03/09 04:10:30;;;;;;;24.83;14.23;;;;;;;;;;5073006;28;20032;-49
2022/03/09 04:13:00;;;;;;;31.35;13.75;;;;;;;;;;5073167;28;20031;-46
2022/03/09 04:15:31;;;;;;;27.45;14.45;;;;;;;;;;5073362;28;20044;-47
2022/03/09 04:17:58;;;;;;;24.90;12.80;;;;;;;;;;5073136;28;20108;-46
2022/03/09 04:20:24;;;;;;;22.30;12.35;;;;;;;;;;5073232;28;20039;-46
2022/03/09 04:22:50;;;;;;;20.80;12.63;;;;;;;;;;5073058;28;20013;-48
2022/03/09 04:25:16;;;;;;;22.90;11.95;;;;;;;;;;5073047;28;20028;-47
2022/03/09 04:27:42;;;;;;;21.83;12.65;;;;;;;;;;5054792;28;20036;-46
2022/03/09 04:30:09;;;;;;;24.65;12.75;;;;;;;;;;5072930;28;20448;-47
2022/03/09 04:32:35;;;;;;;25.30;12.43;;;;;;;;;;5073118;28;20517;-47
2022/03/09 04:35:02;;;;;;;21.80;11.70;;;;;;;;;;5072839;28;20077;-45
2022/03/09 04:37:30;;;;;;;26.48;13.48;;;;;;;;;;5072846;28;20032;-46
2022/03/09 04:39:57;;;;;;;23.23;12.95;;;;;;;;;;5072646;28;20037;-49
2022/03/09 04:42:23;;;;;;;29.98;15.73;;;;;;;;;;5075781;28;20017;-47
2022/03/09 04:44:49;;;;;;;29.00;14.65;;;;;;;;;;5076795;28;20032;-46
2022/03/09 04:47:15;;;;;;;52.30;17.20;;;;;;;;;;5076637;28;20473;-48
2022/03/09 04:49:41;;;;;;;26.45;14.90;;;;;;;;;;5076987;28;20117;-47
2022/03/09 04:52:08;;;;;;;28.45;14.05;;;;;;;;;;5076646;28;20030;-47
2022/03/09 04:54:34;;;;;;;26.75;14.25;;;;;;;;;;5076563;28;20456;-49
2022/03/09 04:57:00;;;;;;;25.70;13.68;;;;;;;;;;5076833;28;20112;-50
2022/03/09 04:59:26;;;;;;;27.55;14.25;;;;;;;;;;5076618;28;20083;-50
2022/03/09 05:01:52;;;;;;;26.50;13.38;;;;;;;;;;5076258;28;20055;-43
2022/03/09 05:04:18;;;;;;;26.67;14.38;;;;;;;;;;5076502;28;20063;-44
2022/03/09 05:06:44;;;;;;;27.55;14.70;;;;;;;;;;5076404;28;20366;-44
2022/03/09 05:09:10;;;;;;;31.10;15.48;;;;;;;;;;5076441;28;20071;-44
2022/03/09 05:11:36;;;;;;;41.92;20.73;;;;;;;;;;5076234;28;20465;-49
2022/03/09 05:14:03;;;;;;;48.95;22.13;;;;;;;;;;5076261;28;20025;-50
2022/03/09 05:16:29;;;;;;;52.75;26.17;;;;;;;;;;5076455;28;20158;-49
2022/03/09 05:18:55;;;;;;;61.25;27.50;;;;;;;;;;5076211;28;20123;-50
2022/03/09 05:21:21;;;;;;;60.42;30.13;;;;;;;;;;5076162;28;20065;-51
2022/03/09 05:23:47;;;;;;;48.78;25.70;;;;;;;;;;5076338;28;20036;-52
2022/03/09 05:26:13;;;;;;;40.30;21.98;;;;;;;;;;5076082;28;20571;-50
2022/03/09 05:28:39;;;;;;;31.70;18.40;;;;;;;;;;5076239;28;20024;-51
2022/03/09 05:31:05;;;;;;;30.23;17.35;;;;;;;;;;5057709;28;20484;-50
2022/03/09 05:33:34;;;;;;;30.02;14.60;;;;;;;;;;5076201;28;20043;-50
2022/03/09 05:36:00;;;;;;;29.10;14.35;;;;;;;;;;5076210;28;20063;-50
2022/03/09 05:38:26;;;;;;;33.33;17.15;;;;;;;;;;5075762;28;20028;-52
2022/03/09 05:40:52;;;;;;;32.75;19.15;;;;;;;;;;5075741;28;20473;-51
2022/03/09 05:43:18;;;;;;;37.50;19.20;;;;;;;;;;5076028;28;20048;-50
2022/03/09 05:45:44;;;;;;;32.95;18.40;;;;;;;;;;5075782;28;20033;-50
2022/03/09 05:48:10;;;;;;;27.95;16.02;;;;;;;;;;5075889;28;20025;-50
2022/03/09 05:50:36;;;;;;;24.52;14.52;;;;;;;;;;5076035;28;20047;-50
2022/03/09 05:53:03;;;;;;;33.03;17.75;;;;;;;;;;5074920;28;20032;-52
2022/03/09 05:55:29;;;;;;;26.55;14.90;;;;;;;;;;5075415;28;20043;-50
2022/03/09 05:57:55;;;;;;;32.28;15.00;;;;;;;;;;5075390;28;20031;-52
2022/03/09 06:00:21;;;;;;;24.70;13.63;;;;;;;;;;5057120;28;20542;-51
2022/03/09 06:02:47;;;;;;;31.60;14.95;;;;;;;;;;5075704;28;20044;-49
2022/03/09 06:05:13;;;;;;;28.70;18.10;;;;;;;;;;5075431;28;20052;-50
2022/03/09 06:07:42;;;;;;;30.73;15.07;;;;;;;;;;5074831;28;20033;-49
2022/03/09 06:10:08;;;;;;;24.58;15.27;;;;;;;;;;5075112;28;20021;-49
2022/03/09 06:12:34;;;;;;;32.33;16.67;;;;;;;;;;5075037;28;20021;-50
2022/03/09 06:15:00;;;;;;;37.75;20.52;;;;;;;;;;5075380;28;20052;-52
2022/03/09 06:17:26;;;;;;;27.70;16.08;;;;;;;;;;5075352;28;20021;-50
2022/03/09 06:19:55;;;;;;;30.90;16.55;;;;;;;;;;5075114;28;20032;-50
2022/03/09 06:22:21;;;;;;;31.92;17.25;;;;;;;;;;5074837;28;20484;-52
2022/03/09 06:24:47;;;;;;;32.80;17.27;;;;;;;;;;5057108;28;20036;-50
2022/03/09 06:27:13;;;;;;;30.42;16.80;;;;;;;;;;5074709;28;20104;-50
2022/03/09 06:29:39;;;;;;;27.25;15.77;;;;;;;;;;5074733;28;20025;-49
2022/03/09 06:32:08;;;;;;;30.90;15.88;;;;;;;;;;5074973;28;20113;-49
2022/03/09 06:34:34;;;;;;;31.73;18.10;;;;;;;;;;5074799;28;20020;-50
2022/03/09 06:37:00;;;;;;;35.90;19.98;;;;;;;;;;5074564;28;20368;-49
2022/03/09 06:39:26;;;;;;;30.65;18.42;;;;;;;;;;5074618;28;20119;-50
2022/03/09 06:41:52;;;;;;;27.75;16.30;;;;;;;;;;5074474;28;20423;-51
2022/03/09 06:44:18;;;;;;;31.13;16.50;;;;;;;;;;5074884;28;20028;-48
2022/03/09 06:46:44;;;;;;;36.15;19.42;;;;;;;;;;5074680;28;20021;-49
2022/03/09 06:49:13;;;;;;;36.90;20.58;;;;;;;;;;5074456;28;20031;-49
2022/03/09 06:51:39;;;;;;;36.60;20.48;;;;;;;;;;5074365;28;20016;-49
2022/03/09 06:54:05;;;;;;;32.08;18.13;;;;;;;;;;5056315;28;20036;-49
2022/03/09 06:56:31;;;;;;;36.55;18.83;;;;;;;;;;5074455;28;20024;-49
2022/03/09 06:58:57;;;;;;;33.55;19.00;;;;;;;;;;5074436;28;20040;-50
2022/03/09 07:01:23;;;;;;;39.95;20.27;;;;;;;;;;5074266;28;20049;-49
2022/03/09 07:03:49;;;;;;;39.70;18.98;;;;;;;;;;5074480;28;20032;-50
2022/03/09 07:06:15;;;;;;;31.02;17.35;;;;;;;;;;5073264;28;20530;-49
2022/03/09 07:08:42;;;;;;;35.85;19.58;;;;;;;;;;5074520;28;20032;-50
2022/03/09 07:11:08;;;;;;;33.65;18.15;;;;;;;;;;5073939;28;20024;-49
2022/03/09 07:13:34;;;;;;;33.00;17.15;;;;;;;;;;5074228;28;20480;-51
2022/03/09 07:16:00;;;;;;;30.08;16.13;;;;;;;;;;5074086;28;20031;-50
2022/03/09 07:18:26;;;;;;;29.00;16.73;;;;;;;;;;5073734;28;20036;-49
2022/03/09 07:20:52;;;;;;;32.58;17.50;;;;;;;;;;5073923;28;20171;-50
2022/03/09 07:23:18;;;;;;;36.00;19.02;;;;;;;;;;5073774;28;20024;-50
2022/03/09 07:25:45;;;;;;;38.50;18.30;;;;;;;;;;5073747;28;20468;-51
2022/03/09 07:28:14;;;;;;;31.40;15.55;;;;;;;;;;5073807;28;20078;-51
2022/03/09 07:30:41;;;;;;;27.50;16.08;;;;;;;;;;5073773;28;20025;-49
2022/03/09 07:33:07;;;;;;;30.52;16.27;;;;;;;;;;5055768;28;20116;-50
2022/03/09 07:35:35;;;;;;;29.73;15.25;;;;;;;;;;5073792;28;20383;-51
2022/03/09 07:38:01;;;;;;;40.38;19.20;;;;;;;;;;5073459;28;20050;-51
2022/03/09 07:40:27;;;;;;;30.67;14.65;;;;;;;;;;5073775;28;20395;-50
2022/03/09 07:42:53;;;;;;;31.98;16.50;;;;;;;;;;5073769;28;20020;-51
2022/03/09 07:45:20;;;;;;;35.53;19.30;;;;;;;;;;5073812;28;20028;-49
2022/03/09 07:47:46;;;;;;;29.17;15.45;;;;;;;;;;5073647;28;20045;-52
2022/03/09 07:50:12;;;;;;;26.75;13.98;;;;;;;;;;5073943;28;20468;-50
2022/03/09 07:52:39;;;;;;;22.58;12.25;;;;;;;;;;5073529;28;20100;-52
2022/03/09 07:55:06;;;;;;;23.63;14.85;;;;;;;;;;5073523;28;20035;-55
2022/03/09 07:57:32;;;;;;;25.13;14.60;;;;;;;;;;5073514;28;20034;-53
2022/03/09 07:59:59;;;;;;;22.13;12.32;;;;;;;;;;5073587;28;20086;-53
2022/03/09 08:02:25;;;;;;;25.05;12.93;;;;;;;;;;5073358;28;20041;-55
2022/03/09 08:04:53;;;;;;;24.92;11.70;;;;;;;;;;5073531;28;20029;-53
2022/03/09 08:07:19;;;;;;;23.13;12.05;;;;;;;;;;5073528;28;20027;-54
2022/03/09 08:09:45;;;;;;;21.80;12.68;;;;;;;;;;5055311;28;20115;-52
2022/03/09 08:12:14;;;;;;;21.75;13.10;;;;;;;;;;5073307;28;20025;-53
2022/03/09 08:14:40;;;;;;;25.70;13.82;;;;;;;;;;5073325;28;20523;-51
2022/03/09 08:17:08;;;;;;;23.45;14.43;;;;;;;;;;5077885;28;20078;-51
2022/03/09 08:19:39;;;;;;;23.67;14.68;;;;;;;;;;5079928;28;20045;-49
2022/03/09 08:22:05;;;;;;;26.75;14.10;;;;;;;;;;5080041;28;20408;-51
2022/03/09 08:24:33;;;;;;;29.98;14.52;;;;;;;;;;5061855;28;20043;-49
2022/03/09 08:26:59;;;;;;;21.23;12.48;;;;;;;;;;5080389;28;20017;-50
2022/03/09 08:29:28;;;;;;;21.67;13.27;;;;;;;;;;5079738;28;20024;-49
2022/03/09 08:31:55;;;;;;;27.90;15.30;;;;;;;;;;5080038;28;20403;-49
2022/03/09 08:34:21;;;;;;;22.23;12.85;;;;;;;;;;5079917;28;20416;-50
2022/03/09 08:36:49;;;;;;;23.65;13.57;;;;;;;;;;5080123;28;20017;-51
2022/03/09 08:39:15;;;;;;;23.77;13.48;;;;;;;;;;5061677;28;20037;-50
2022/03/09 08:41:44;;;;;;;33.10;15.70;;;;;;;;;;5079820;28;20028;-49
2022/03/09 08:44:10;;;;;;;18.52;12.05;;;;;;;;;;5079698;28;20025;-51
2022/03/09 08:46:36;;;;;;;21.95;13.75;;;;;;;;;;5079704;28;20013;-52
2022/03/09 08:49:02;;;;;;;22.35;12.88;;;;;;;;;;5079685;28;20028;-50
2022/03/09 08:51:28;;;;;;;17.02;11.55;;;;;;;;;;5079734;28;20063;-49
2022/03/09 08:53:54;;;;;;;18.83;11.73;;;;;;;;;;5079496;28;20103;-49
2022/03/09 08:56:21;;;;;;;21.65;12.10;;;;;;;;;;5079561;28;20476;-51
2022/03/09 08:58:47;;;;;;;21.83;12.23;;;;;;;;;;5079617;28;20036;-49
2022/03/09 09:01:13;;;;;;;21.85;12.10;;;;;;;;;;5079638;28;20442;-49
2022/03/09 09:03:39;;;;;;;19.40;11.80;;;;;;;;;;5079697;28;20032;-49
2022/03/09 09:06:05;;;;;;;21.30;12.35;;;;;;;;;;5079621;28;20499;-51
2022/03/09 09:08:31;;;;;;;14.88;10.68;;;;;;;;;;5079333;28;20036;-49
2022/03/09 09:10:58;;;;;;;23.30;13.18;;;;;;;;;;5079324;28;20016;-50
2022/03/09 09:13:24;;;;;;;33.85;14.70;;;;;;;;;;5079479;28;20028;-50
2022/03/09 09:15:50;;;;;;;23.23;13.32;;;;;;;;;;5079424;28;20036;-50
2022/03/09 09:18:16;;;;;;;21.75;12.00;;;;;;;;;;5079490;28;20018;-50
2022/03/09 09:20:44;;;;;;;20.92;11.77;;;;;;;;;;5079446;28;20024;-49
2022/03/09 09:23:13;;;;;;;17.55;11.27;;;;;;;;;;5079674;28;20020;-49
2022/03/09 09:25:39;;;;;;;21.67;12.65;;;;;;;;;;5079368;28;20103;-50
2022/03/09 09:28:06;;;;;;;22.58;12.02;;;;;;;;;;5076673;28;20021;-49
2022/03/09 09:30:32;;;;;;;24.65;13.30;;;;;;;;;;5076064;28;20040;-49
2022/03/09 09:33:02;;;;;;;22.00;11.60;;;;;;;;;;5076038;28;20063;-49
2022/03/09 09:35:28;;;;;;;24.25;11.15;;;;;;;;;;5076103;28;20027;-49
2022/03/09 09:37:55;;;;;;;19.40;10.75;;;;;;;;;;5075954;28;20020;-49
2022/03/09 09:40:21;;;;;;;28.33;14.23;;;;;;;;;;5075804;28;20025;-49
2022/03/09 09:42:47;;;;;;;23.48;14.43;;;;;;;;;;5075881;28;20033;-50
2022/03/09 09:45:13;;;;;;;21.67;11.65;;;;;;;;;;5058206;28;20060;-50
2022/03/09 09:47:39;;;;;;;23.52;13.55;;;;;;;;;;5075710;28;20047;-50
2022/03/09 09:50:06;;;;;;;24.83;16.15;;;;;;;;;;5075694;28;20074;-51
2022/03/09 09:52:33;;;;;;;20.88;14.35;;;;;;;;;;5075630;28;20020;-50
2022/03/09 09:55:00;;;;;;;17.00;11.40;;;;;;;;;;5075800;28;20438;-50
2022/03/09 09:57:28;;;;;;;23.25;11.43;;;;;;;;;;5075840;28;20081;-50
2022/03/09 09:59:54;;;;;;;19.10;12.07;;;;;;;;;;5075468;28;20085;-50
2022/03/09 10:02:21;;;;;;;20.05;12.45;;;;;;;;;;5075311;28;20049;-50
2022/03/09 10:04:47;;;;;;;24.35;12.90;;;;;;;;;;5075601;28;20031;-50
2022/03/09 10:07:14;;;;;;;24.27;13.10;;;;;;;;;;5075561;28;20096;-50
2022/03/09 10:09:41;;;;;;;26.38;15.18;;;;;;;;;;5057533;28;20029;-51
2022/03/09 10:12:08;;;;;;;17.73;11.65;;;;;;;;;;5075312;28;20107;-51
2022/03/09 10:14:37;;;;;;;22.98;13.18;;;;;;;;;;5075310;28;20021;-50
2022/03/09 10:17:05;;;;;;;21.52;12.15;;;;;;;;;;5075022;28;20024;-50
2022/03/09 10:19:32;;;;;;;18.52;10.95;;;;;;;;;;5075372;28;20128;-49
2022/03/09 10:21:58;;;;;;;17.58;10.80;;;;;;;;;;5075651;28;20333;-51
2022/03/09 10:24:34;;;;;;;21.10;11.70;;;;;;;;;;5074992;28;20031;-49
2022/03/09 10:27:01;;;;;;;24.58;12.52;;;;;;;;;;5075036;28;20032;-50
2022/03/09 10:29:30;;;;;;;25.80;15.43;;;;;;;;;;5075024;28;20031;-51
2022/03/09 10:31:59;;;;;;;22.83;13.82;;;;;;;;;;5074921;28;20029;-50
2022/03/09 10:34:29;;;;;;;27.38;16.52;;;;;;;;;;5074692;28;20029;-50
2022/03/09 10:37:00;;;;;;;26.13;16.02;;;;;;;;;;5074830;28;20019;-49
2022/03/09 10:39:28;;;;;;;31.63;18.23;;;;;;;;;;5074471;28;20032;-49
2022/03/09 10:41:54;;;;;;;32.38;18.73;;;;;;;;;;5056587;28;20526;-50
2022/03/09 10:44:23;;;;;;;36.25;18.20;;;;;;;;;;5074662;28;20149;-50
2022/03/09 10:46:50;;;;;;;21.63;14.10;;;;;;;;;;5074609;28;20029;-50
2022/03/09 10:49:19;;;;;;;17.30;11.95;;;;;;;;;;5074660;28;20025;-48
2022/03/09 10:51:47;;;;;;;21.55;11.02;;;;;;;;;;5074373;28;20104;-50
2022/03/09 10:54:23;;;;;;;18.83;11.60;;;;;;;;;;5074318;28;20028;-49
2022/03/09 10:56:49;;;;;;;19.10;11.50;;;;;;;;;;5074492;28;20028;-52
2022/03/09 10:59:25;;;;;;;17.60;11.25;;;;;;;;;;5074294;28;20032;-50
2022/03/09 11:02:10;;;;;;;20.23;10.50;;;;;;;;;;5074183;28;20037;-51
2022/03/09 11:04:37;;;;;;;17.90;11.13;;;;;;;;;;5074138;28;20028;-52
2022/03/09 11:07:04;;;;;;;19.15;12.10;;;;;;;;;;5074305;28;20028;-49
2022/03/09 11:09:31;;;;;;;20.83;12.18;;;;;;;;;;5074239;28;20032;-51
2022/03/09 11:11:57;;;;;;;18.08;11.38;;;;;;;;;;5056292;28;20024;-50
2022/03/09 11:14:26;;;;;;;18.95;11.38;;;;;;;;;;5074327;28;20388;-50
2022/03/09 11:16:54;;;;;;;23.20;11.85;;;;;;;;;;5056053;28;20020;-52
2022/03/09 11:19:20;;;;;;;16.75;11.38;;;;;;;;;;5074001;28;20491;-53
2022/03/09 11:21:47;;;;;;;19.02;12.05;;;;;;;;;;5073803;28;20032;-51
2022/03/09 11:24:14;;;;;;;16.77;10.93;;;;;;;;;;5073704;28;20025;-51
2022/03/09 11:26:55;;;;;;;19.30;11.82;;;;;;;;;;5073893;28;20028;-50
2022/03/09 11:29:28;;;;;;;20.50;12.07;;;;;;;;;;5073750;28;20108;-47
2022/03/09 11:31:57;;;;;;;23.00;11.82;;;;;;;;;;5073878;28;20381;-48
2022/03/09 11:34:41;;;;;;;20.48;11.05;;;;;;;;;;5073860;28;20027;-48
2022/03/09 11:37:33;;;;;;;21.80;12.38;;;;;;;;;;5073627;28;20473;-48
2022/03/09 11:40:08;;;;;;;19.08;12.10;;;;;;;;;;5073538;28;20033;-50
2022/03/09 11:42:35;;;;;;;21.33;12.88;;;;;;;;;;5073824;28;20539;-48
2022/03/09 11:45:14;;;;;;;22.27;12.73;;;;;;;;;;5073701;28;20360;-48
2022/03/09 11:48:01;;;;;;;25.17;13.00;;;;;;;;;;5073636;28;20040;-48
2022/03/09 11:50:30;;;;;;;24.15;14.05;;;;;;;;;;5073228;28;20012;-50
2022/03/09 11:53:02;;;;;;;27.42;15.45;;;;;;;;;;5073202;28;20024;-48
2022/03/09 11:55:29;;;;;;;29.90;15.02;;;;;;;;;;5073561;28;20025;-49
2022/03/09 11:58:05;;;;;;;27.40;15.57;;;;;;;;;;5073493;28;20104;-50
2022/03/09 12:00:35;;;;;;;31.05;15.93;;;;;;;;;;5073388;28;20041;-49
2022/03/09 12:03:02;;;;;;;27.00;16.58;;;;;;;;;;5073568;28;20028;-49
2022/03/09 12:05:28;;;;;;;25.45;15.20;;;;;;;;;;5055414;28;20028;-48
2022/03/09 12:07:54;;;;;;;26.88;16.20;;;;;;;;;;5073173;28;20423;-50
2022/03/09 12:10:24;;;;;;;29.60;17.05;;;;;;;;;;5073139;28;20036;-48
2022/03/09 12:13:10;;;;;;;27.02;17.23;;;;;;;;;;5073330;28;20545;-50
2022/03/09 12:15:58;;;;;;;25.58;14.43;;;;;;;;;;5073442;28;20027;-48
2022/03/09 12:18:34;;;;;;;28.88;14.68;;;;;;;;;;5056362;28;20510;-50
2022/03/09 12:21:00;;;;;;;25.42;15.07;;;;;;;;;;5073256;28;20115;-48
2022/03/09 12:23:26;;;;;;;29.30;15.75;;;;;;;;;;5073284;28;20021;-50
2022/03/09 12:25:53;;;;;;;23.17;13.80;;;;;;;;;;5073140;28;20108;-49
2022/03/09 12:28:25;;;;;;;27.48;15.15;;;;;;;;;;5073169;28;20063;-48
2022/03/09 12:30:56;;;;;;;25.27;15.00;;;;;;;;;;5073168;28;20497;-52
2022/03/09 12:33:24;;;;;;;22.30;13.07;;;;;;;;;;5073268;28;20052;-48
2022/03/09 12:35:50;;;;;;;19.40;12.40;;;;;;;;;;5073031;28;20035;-49
2022/03/09 12:38:17;;;;;;;22.75;13.40;;;;;;;;;;5073147;28;20465;-48
2022/03/09 12:40:45;;;;;;;27.13;14.60;;;;;;;;;;5072892;28;20078;-48
2022/03/09 12:43:11;;;;;;;23.40;14.65;;;;;;;;;;5055210;28;20020;-48
2022/03/09 12:45:54;;;;;;;30.15;14.90;;;;;;;;;;5073056;28;20029;-53
2022/03/09 12:48:20;;;;;;;22.00;12.90;;;;;;;;;;5073008;28;20024;-52
2022/03/09 12:50:47;;;;;;;37.20;19.48;;;;;;;;;;5072867;28;20461;-52
2022/03/09 12:53:18;;;;;;;30.02;16.88;;;;;;;;;;5073105;28;20028;-52
2022/03/09 12:55:44;;;;;;;23.55;14.98;;;;;;;;;;5072917;28;20025;-52
2022/03/09 12:58:10;;;;;;;27.23;15.75;;;;;;;;;;5072672;28;20021;-48
2022/03/09 13:00:36;;;;;;;35.33;17.75;;;;;;;;;;5072617;28;20067;-48
2022/03/09 13:03:02;;;;;;;26.05;14.32;;;;;;;;;;5073352;28;20037;-49
2022/03/09 13:05:33;;;;;;;26.73;15.15;;;;;;;;;;5076750;28;20024;-50
2022/03/09 13:08:00;;;;;;;25.77;13.65;;;;;;;;;;5076359;28;20029;-48
2022/03/09 13:10:27;;;;;;;27.73;14.88;;;;;;;;;;5076250;28;20369;-48
2022/03/09 13:12:56;;;;;;;26.92;15.05;;;;;;;;;;5076441;28;20063;-48
2022/03/09 13:15:33;;;;;;;22.13;13.10;;;;;;;;;;5076251;28;20512;-48
2022/03/09 13:17:59;;;;;;;29.60;13.57;;;;;;;;;;5076189;28;20082;-49
2022/03/09 13:20:26;;;;;;;19.33;11.85;;;;;;;;;;5076288;28;20036;-49
2022/03/09 13:22:52;;;;;;;22.33;12.30;;;;;;;;;;5076633;28;20105;-49
2022/03/09 13:25:19;;;;;;;25.00;13.70;;;;;;;;;;5076174;28;20035;-49
2022/03/09 13:27:45;;;;;;;36.63;16.13;;;;;;;;;;5076106;28;20017;-53
2022/03/09 13:30:29;;;;;;;22.88;13.50;;;;;;;;;;5076067;28;20063;-53
2022/03/09 13:32:56;;;;;;;33.05;15.77;;;;;;;;;;5076151;28;20083;-49
2022/03/09 13:35:23;;;;;;;29.17;14.70;;;;;;;;;;5075934;28;20289;-52
2022/03/09 13:38:01;;;;;;;30.45;15.23;;;;;;;;;;5076066;28;20432;-49
2022/03/09 13:40:28;;;;;;;27.17;14.75;;;;;;;;;;5075925;28;20043;-52
2022/03/09 13:42:54;;;;;;;27.83;14.00;;;;;;;;;;5075959;28;20016;-52
2022/03/09 13:45:29;;;;;;;26.60;15.07;;;;;;;;;;5075812;28;20029;-52
2022/03/09 13:47:58;;;;;;;26.90;13.70;;;;;;;;;;5075786;28;20391;-51
2022/03/09 13:50:28;;;;;;;25.00;13.43;;;;;;;;;;5075687;28;20056;-52
2022/03/09 13:52:57;;;;;;;29.75;15.82;;;;;;;;;;5075770;28;20028;-53
2022/03/09 13:55:25;;;;;;;25.58;13.70;;;;;;;;;;5076105;28;20372;-53
2022/03/09 13:58:01;;;;;;;24.60;12.93;;;;;;;;;;5075719;28;20016;-52
2022/03/09 14:00:30;;;;;;;27.67;13.23;;;;;;;;;;5075552;28;20043;-52
2022/03/09 14:02:57;;;;;;;25.05;13.77;;;;;;;;;;5075338;28;20045;-52
2022/03/09 14:05:30;;;;;;;21.30;12.85;;;;;;;;;;5075630;28;20396;-53
2022/03/09 14:07:57;;;;;;;26.02;15.65;;;;;;;;;;5075412;28;20465;-52
2022/03/09 14:10:25;;;;;;;23.88;13.57;;;;;;;;;;5075334;28;20025;-52
2022/03/09 14:12:51;;;;;;;23.05;13.82;;;;;;;;;;5075291;28;20499;-53
2022/03/09 14:15:17;;;;;;;26.80;15.73;;;;;;;;;;5074676;28;20035;-52
2022/03/09 14:17:43;;;;;;;22.90;14.60;;;;;;;;;;5075267;28;20388;-50
2022/03/09 14:20:11;;;;;;;37.60;20.27;;;;;;;;;;5075367;28;20040;-52